Time;durP1;ratioP1;P1;durP2;ratioP2;P2;SDS_P1;SDS_P2;PMS_P1;PMS_P2;Temp;Humidity;BMP_temperature;BMP_pressure;BME280_temperature;BME280_humidity;BME280_pressure;Samples;Min_cycle;Max_cycle;Signal;HPM_P1;HPM_P2
2020/12/22 00:01:28;;;;;;;2.63;1.75;;;10.00;99.90;;;;;;5054774;28;20111;-61
2020/12/22 00:04:14;;;;;;;2.78;1.58;;;9.90;99.90;;;;;;5054183;28;20037;-62
2020/12/22 00:07:00;;;;;;;2.70;1.55;;;10.00;99.90;;;;;;5052887;28;20037;-61
2020/12/22 00:09:46;;;;;;;2.65;1.70;;;10.00;99.90;;;;;;5052296;28;20043;-61
2020/12/22 00:12:34;;;;;;;3.13;1.30;;;10.00;99.90;;;;;;5054557;28;20033;-61
2020/12/22 00:15:20;;;;;;;2.88;1.52;;;10.00;99.90;;;;;;5052234;28;20115;-61
2020/12/22 00:18:06;;;;;;;3.22;1.77;;;10.00;99.90;;;;;;5052267;28;20025;-61
2020/12/22 00:20:52;;;;;;;3.00;1.73;;;10.00;99.90;;;;;;5053967;28;20045;-61
2020/12/22 00:23:38;;;;;;;3.38;1.98;;;10.00;99.90;;;;;;5054009;28;20091;-61
2020/12/22 00:26:24;;;;;;;3.85;1.98;;;10.00;99.90;;;;;;5053116;28;20098;-61
2020/12/22 00:29:10;;;;;;;3.70;2.10;;;10.00;99.90;;;;;;5053663;28;20033;-61
2020/12/22 00:32:00;;;;;;;3.45;1.83;;;10.10;99.90;;;;;;5039196;28;20033;-61
2020/12/22 00:34:46;;;;;;;3.00;1.80;;;10.10;99.90;;;;;;5053055;28;20037;-61
2020/12/22 00:37:32;;;;;;;2.95;1.90;;;10.10;99.90;;;;;;5053466;28;20037;-61
2020/12/22 00:40:18;;;;;;;4.18;2.20;;;10.20;99.90;;;;;;5052434;28;20112;-61
2020/12/22 00:43:05;;;;;;;5.07;1.88;;;10.20;99.90;;;;;;5052331;28;20048;-61
2020/12/22 00:45:52;;;;;;;3.10;1.83;;;10.20;99.90;;;;;;5038730;28;20083;-61
2020/12/22 00:48:37;;;;;;;3.70;2.10;;;10.20;99.90;;;;;;5051856;28;20060;-61
2020/12/22 00:51:24;;;;;;;8.73;2.20;;;10.20;99.90;;;;;;5039067;28;20406;-61
2020/12/22 00:54:10;;;;;;;3.75;2.22;;;10.20;99.90;;;;;;5052242;28;20478;-62
2020/12/22 00:56:57;;;;;;;5.82;1.90;;;10.20;99.90;;;;;;5052031;28;20037;-61
2020/12/22 00:59:43;;;;;;;4.70;2.30;;;10.20;99.90;;;;;;5052603;28;20108;-61
2020/12/22 01:02:29;;;;;;;4.10;2.20;;;10.20;99.90;;;;;;5036903;28;20437;-61
2020/12/22 01:05:15;;;;;;;3.42;2.03;;;10.20;99.90;;;;;;5052711;28;20500;-61
2020/12/22 01:08:01;;;;;;;3.83;2.40;;;10.30;99.90;;;;;;5051768;28;20072;-61
2020/12/22 01:10:47;;;;;;;3.88;1.92;;;10.30;99.90;;;;;;5051597;28;20575;-61
2020/12/22 01:13:33;;;;;;;4.38;2.08;;;10.40;99.90;;;;;;5052232;28;20036;-61
2020/12/22 01:16:19;;;;;;;2.92;1.80;;;10.40;99.90;;;;;;5052854;28;20071;-61
2020/12/22 01:19:05;;;;;;;4.80;1.98;;;10.40;99.90;;;;;;5052877;28;20072;-61
2020/12/22 01:21:55;;;;;;;2.80;1.52;;;10.40;99.90;;;;;;5052746;28;20119;-60
2020/12/22 01:24:42;;;;;;;2.47;1.55;;;10.40;99.90;;;;;;5052076;28;20052;-61
2020/12/22 01:27:28;;;;;;;3.58;1.95;;;10.40;99.90;;;;;;5052516;28;20029;-61
2020/12/22 01:30:14;;;;;;;4.65;2.33;;;10.50;99.90;;;;;;5051372;28;20037;-62
2020/12/22 01:33:00;;;;;;;2.70;1.75;;;10.50;99.90;;;;;;5051823;28;20033;-61
2020/12/22 01:35:45;;;;;;;5.40;1.60;;;10.60;99.90;;;;;;5051874;28;20143;-61
2020/12/22 01:38:32;;;;;;;5.03;1.17;;;10.60;99.90;;;;;;5052415;28;20387;-61
2020/12/22 01:41:19;;;;;;;4.45;1.48;;;10.60;99.90;;;;;;5050405;28;20116;-61
2020/12/22 01:44:15;;;;;;;1.33;0.90;;;10.60;99.90;;;;;;5052454;28;20140;-61
2020/12/22 01:47:01;;;;;;;1.90;1.13;;;10.70;99.90;;;;;;5051399;28;20044;-61
2020/12/22 01:49:47;;;;;;;2.13;1.10;;;10.70;99.90;;;;;;5051937;28;20048;-61
2020/12/22 01:52:33;;;;;;;1.98;0.93;;;10.80;99.90;;;;;;5050001;28;20033;-61
2020/12/22 01:55:19;;;;;;;2.83;1.58;;;10.80;99.90;;;;;;5051660;28;20041;-61
2020/12/22 01:58:05;;;;;;;1.52;0.93;;;10.80;99.90;;;;;;5051659;28;20544;-61
2020/12/22 02:00:51;;;;;;;2.10;1.17;;;10.80;99.90;;;;;;5051584;28;20060;-61
2020/12/22 02:03:38;;;;;;;3.60;1.38;;;10.80;99.90;;;;;;5050790;28;20116;-61
2020/12/22 02:06:24;;;;;;;1.92;1.30;;;10.80;99.90;;;;;;5053020;28;20048;-61
2020/12/22 02:09:11;;;;;;;3.45;1.17;;;10.80;99.90;;;;;;5035625;28;20041;-61
2020/12/22 02:11:57;;;;;;;3.17;1.90;;;10.80;99.90;;;;;;5052338;28;20068;-61
2020/12/22 02:14:44;;;;;;;3.80;1.52;;;10.70;99.90;;;;;;5051911;28;20678;-61
2020/12/22 02:17:30;;;;;;;2.65;1.27;;;10.70;99.90;;;;;;5037694;28;20033;-61
2020/12/22 02:20:16;;;;;;;2.63;1.30;;;10.80;99.90;;;;;;5051322;28;20047;-61
2020/12/22 02:23:02;;;;;;;2.05;1.25;;;10.80;99.90;;;;;;5052519;28;20025;-61
2020/12/22 02:25:48;;;;;;;3.17;1.30;;;10.80;99.90;;;;;;5050567;28;20494;-61
2020/12/22 02:28:35;;;;;;;2.55;1.40;;;10.80;99.90;;;;;;5051183;28;20099;-61
2020/12/22 02:31:25;;;;;;;2.40;1.08;;;10.70;99.90;;;;;;5050186;28;20041;-61
2020/12/22 02:34:11;;;;;;;2.50;1.25;;;10.80;99.90;;;;;;5051892;28;20029;-62
2020/12/22 02:36:57;;;;;;;2.60;1.27;;;10.80;99.90;;;;;;5050019;28;20076;-61
2020/12/22 02:39:43;;;;;;;1.73;0.80;;;10.80;99.90;;;;;;5051623;28;20138;-61
2020/12/22 02:42:30;;;;;;;3.13;1.20;;;10.90;99.90;;;;;;5051528;28;20460;-61
2020/12/22 02:45:16;;;;;;;1.33;0.93;;;10.90;99.90;;;;;;5050089;28;20142;-61
2020/12/22 02:48:02;;;;;;;2.10;0.80;;;10.90;99.90;;;;;;5051450;28;20043;-61
2020/12/22 02:50:49;;;;;;;1.42;0.88;;;10.90;99.90;;;;;;5050380;28;20080;-61
2020/12/22 02:53:35;;;;;;;3.65;1.00;;;10.90;99.90;;;;;;5050421;28;20029;-61
2020/12/22 02:56:21;;;;;;;1.67;0.93;;;10.90;99.90;;;;;;5050523;28;20507;-61
2020/12/22 02:59:07;;;;;;;1.17;0.77;;;10.90;99.90;;;;;;5050254;28;20045;-61
2020/12/22 03:01:53;;;;;;;2.08;0.73;;;10.90;99.90;;;;;;5051415;28;20037;-61
2020/12/22 03:04:39;;;;;;;1.27;0.75;;;10.90;99.90;;;;;;5054278;28;20164;-61
2020/12/22 03:07:25;;;;;;;1.25;0.77;;;10.90;99.90;;;;;;5052859;28;20029;-61
2020/12/22 03:10:17;;;;;;;1.88;1.00;;;11.00;99.90;;;;;;5053394;28;20493;-62
2020/12/22 03:13:03;;;;;;;2.28;0.95;;;11.10;99.90;;;;;;5053728;28;20041;-62
2020/12/22 03:15:49;;;;;;;1.83;0.80;;;11.10;99.90;;;;;;5054445;28;20509;-62
2020/12/22 03:18:35;;;;;;;1.83;1.00;;;11.20;99.90;;;;;;5054143;28;20122;-61
2020/12/22 03:21:21;;;;;;;2.25;0.80;;;11.10;99.90;;;;;;5054157;28;20033;-62
2020/12/22 03:24:07;;;;;;;1.90;1.13;;;11.10;99.90;;;;;;5054487;28;20112;-62
2020/12/22 03:26:53;;;;;;;1.20;0.70;;;11.20;99.90;;;;;;5054889;28;20398;-61
2020/12/22 03:29:39;;;;;;;1.35;0.70;;;11.10;99.90;;;;;;5053774;28;20151;-61
2020/12/22 03:32:26;;;;;;;0.85;0.47;;;11.20;99.90;;;;;;5054897;28;20041;-61
2020/12/22 03:35:13;;;;;;;1.48;0.77;;;11.30;99.90;;;;;;5055389;28;20048;-61
2020/12/22 03:37:59;;;;;;;0.85;0.60;;;11.10;99.90;;;;;;5053688;28;20036;-61
2020/12/22 03:40:45;;;;;;;1.10;0.77;;;11.20;99.90;;;;;;5053523;28;20040;-61
2020/12/22 03:43:32;;;;;;;1.33;0.70;;;11.20;99.90;;;;;;5053592;28;20029;-61
2020/12/22 03:46:18;;;;;;;1.13;0.75;;;11.20;99.90;;;;;;5053953;28;20115;-61
2020/12/22 03:49:04;;;;;;;0.95;0.60;;;11.30;99.90;;;;;;5053696;28;20056;-61
2020/12/22 03:51:50;;;;;;;0.73;0.50;;;11.30;99.90;;;;;;5038844;28;20486;-61
2020/12/22 03:54:37;;;;;;;0.75;0.40;;;11.30;99.90;;;;;;5053601;28;20021;-61
2020/12/22 03:57:23;;;;;;;0.73;0.57;;;11.30;99.90;;;;;;5052781;28;20041;-61
2020/12/22 04:00:13;;;;;;;1.92;0.80;;;11.30;99.90;;;;;;5052776;28;20033;-61
2020/12/22 04:02:59;;;;;;;1.67;0.60;;;11.30;99.90;;;;;;5039404;28;20039;-61
2020/12/22 04:05:44;;;;;;;2.30;0.55;;;11.30;99.90;;;;;;5052357;28;20029;-61
2020/12/22 04:08:31;;;;;;;1.13;0.77;;;11.40;99.90;;;;;;5054347;28;20184;-61
2020/12/22 04:11:17;;;;;;;1.27;0.60;;;11.40;99.90;;;;;;5054190;28;20065;-61
2020/12/22 04:14:03;;;;;;;1.65;0.60;;;11.40;99.90;;;;;;5052025;28;20115;-61
2020/12/22 04:16:49;;;;;;;1.13;0.70;;;11.40;99.90;;;;;;5053124;28;20032;-61
2020/12/22 04:19:35;;;;;;;0.60;0.50;;;11.40;99.90;;;;;;5052886;28;20044;-61
2020/12/22 04:22:21;;;;;;;0.73;0.45;;;11.40;99.90;;;;;;5053453;28;20040;-61
2020/12/22 04:25:07;;;;;;;0.88;0.57;;;11.40;99.90;;;;;;5053982;28;20422;-61
2020/12/22 04:27:53;;;;;;;0.63;0.43;;;11.50;99.90;;;;;;5051788;28;20045;-61
2020/12/22 04:30:39;;;;;;;1.05;0.38;;;11.50;99.90;;;;;;5053659;28;20091;-61
2020/12/22 04:33:25;;;;;;;0.95;0.65;;;11.50;99.90;;;;;;5052729;28;20175;-61
2020/12/22 04:36:11;;;;;;;1.00;0.35;;;11.50;99.90;;;;;;5052277;28;20033;-61
2020/12/22 04:38:57;;;;;;;0.80;0.47;;;11.50;99.90;;;;;;5052584;28;20037;-61
2020/12/22 04:41:48;;;;;;;1.75;0.57;;;11.50;99.90;;;;;;5053610;28;20037;-61
2020/12/22 04:44:34;;;;;;;0.95;0.45;;;11.60;99.90;;;;;;5052903;28;20478;-61
2020/12/22 04:47:24;;;;;;;2.78;0.45;;;11.60;99.90;;;;;;5052993;28;20397;-61
2020/12/22 04:50:14;;;;;;;0.60;0.43;;;11.60;99.90;;;;;;5038409;28;20090;-61
2020/12/22 04:53:00;;;;;;;0.90;0.50;;;11.60;99.90;;;;;;5038749;28;20547;-61
2020/12/22 04:55:46;;;;;;;0.82;0.35;;;11.60;99.90;;;;;;5053062;28;20053;-61
2020/12/22 04:58:32;;;;;;;0.82;0.40;;;11.60;99.90;;;;;;5053877;28;20061;-61
2020/12/22 05:01:18;;;;;;;0.88;0.40;;;11.60;99.90;;;;;;5052816;28;20048;-61
2020/12/22 05:04:04;;;;;;;1.38;0.60;;;11.60;99.90;;;;;;5037682;28;20091;-60
2020/12/22 05:06:50;;;;;;;1.60;0.45;;;11.70;99.90;;;;;;5051064;28;20055;-60
2020/12/22 05:09:36;;;;;;;0.43;0.20;;;11.70;99.90;;;;;;5052415;28;20482;-60
2020/12/22 05:12:22;;;;;;;0.43;0.20;;;11.70;99.90;;;;;;5053073;28;20442;-60
2020/12/22 05:15:10;;;;;;;0.50;0.30;;;11.70;99.90;;;;;;5053054;28;20115;-60
2020/12/22 05:18:00;;;;;;;0.82;0.30;;;11.80;99.90;;;;;;5053244;28;20031;-60
2020/12/22 05:20:48;;;;;;;0.55;0.40;;;11.80;99.90;;;;;;5038121;28;20067;-60
2020/12/22 05:23:35;;;;;;;0.98;0.43;;;11.70;99.90;;;;;;5052378;28;20048;-61
2020/12/22 05:26:21;;;;;;;0.55;0.32;;;11.80;99.90;;;;;;5050118;28;20024;-60
2020/12/22 05:29:13;;;;;;;0.70;0.38;;;11.80;99.90;;;;;;5051575;28;20037;-60
2020/12/22 05:32:00;;;;;;;0.55;0.40;;;11.80;99.90;;;;;;5037091;28;20033;-60
2020/12/22 05:34:46;;;;;;;0.93;0.43;;;11.80;99.90;;;;;;5050922;28;20444;-60
2020/12/22 05:37:40;;;;;;;0.40;0.30;;;11.80;99.90;;;;;;5037170;28;20041;-60
2020/12/22 05:40:26;;;;;;;1.00;0.30;;;11.90;99.90;;;;;;5051878;28;20082;-60
2020/12/22 05:43:12;;;;;;;0.68;0.35;;;11.80;99.90;;;;;;5052446;28;20041;-60
2020/12/22 05:46:00;;;;;;;1.13;0.38;;;11.80;99.90;;;;;;5050445;28;20044;-61
2020/12/22 05:48:48;;;;;;;1.27;0.50;;;11.80;99.90;;;;;;5050258;28;20458;-60
2020/12/22 05:51:34;;;;;;;0.60;0.40;;;11.80;99.90;;;;;;5036875;28;20045;-60
2020/12/22 05:54:20;;;;;;;1.38;0.80;;;11.80;99.90;;;;;;5050418;28;20139;-60
2020/12/22 05:57:06;;;;;;;1.27;0.55;;;11.90;99.90;;;;;;5049344;28;20037;-60
2020/12/22 05:59:54;;;;;;;4.60;0.60;;;11.80;99.90;;;;;;5051371;28;20048;-60
2020/12/22 06:02:41;;;;;;;0.57;0.52;;;11.90;99.90;;;;;;5032085;28;20398;-60
2020/12/22 06:05:30;;;;;;;0.30;0.30;;;11.80;99.90;;;;;;5030882;28;20115;-60
2020/12/22 06:08:16;;;;;;;0.90;0.40;;;11.80;99.90;;;;;;5017287;28;20042;-60
2020/12/22 06:11:02;;;;;;;2.45;0.45;;;11.80;99.90;;;;;;5016485;28;20136;-61
2020/12/22 06:13:51;;;;;;;0.70;0.35;;;11.80;99.90;;;;;;5030632;28;20083;-61
2020/12/22 06:16:37;;;;;;;0.88;0.30;;;11.80;99.90;;;;;;5030253;28;20406;-61
2020/12/22 06:19:23;;;;;;;0.63;0.43;;;11.80;99.90;;;;;;5030955;28;20096;-60
2020/12/22 06:22:12;;;;;;;0.60;0.40;;;11.80;99.90;;;;;;5029754;28;20564;-60
2020/12/22 06:24:58;;;;;;;0.60;0.40;;;11.90;99.90;;;;;;5032481;28;20096;-61
2020/12/22 06:27:44;;;;;;;0.50;0.35;;;11.90;99.90;;;;;;5030618;28;20550;-60
2020/12/22 06:30:38;;;;;;;0.82;0.40;;;11.90;99.90;;;;;;5030752;28;20490;-61
2020/12/22 06:33:27;;;;;;;0.40;0.40;;;11.80;99.90;;;;;;5016065;28;20409;-61
2020/12/22 06:36:14;;;;;;;0.45;0.40;;;11.80;99.90;;;;;;5031806;28;20116;-60
2020/12/22 06:39:02;;;;;;;1.67;0.50;;;11.90;99.90;;;;;;5035454;28;20478;-61
2020/12/22 06:41:48;;;;;;;1.13;0.60;;;11.90;99.90;;;;;;5034783;28;20038;-61
2020/12/22 06:44:35;;;;;;;0.95;0.50;;;11.90;99.90;;;;;;5034352;28;20041;-61
2020/12/22 06:47:35;;;;;;;0.98;0.60;;;11.90;99.90;;;;;;5032262;28;20053;-61
2020/12/22 06:50:47;;;;;;;0.63;0.40;;;11.90;99.90;;;;;;5034275;28;20084;-61
2020/12/22 06:53:35;;;;;;;2.38;0.75;;;11.90;99.90;;;;;;5033988;28;20033;-61
2020/12/22 06:56:41;;;;;;;3.20;0.60;;;11.90;99.90;;;;;;5045212;28;20091;-61
2020/12/22 06:59:44;;;;;;;0.47;0.38;;;11.90;99.90;;;;;;5054774;28;20037;-61
2020/12/22 07:02:36;;;;;;;2.38;0.55;;;12.00;99.90;;;;;;5054171;28;20175;-61
2020/12/22 07:05:55;;;;;;;0.43;0.38;;;12.00;99.90;;;;;;5033338;28;20120;-61
2020/12/22 07:08:42;;;;;;;0.80;0.40;;;12.00;99.90;;;;;;5009520;28;20048;-62
2020/12/22 07:11:28;;;;;;;0.30;0.30;;;12.00;99.90;;;;;;5018574;28;20379;-61
2020/12/22 07:14:17;;;;;;;0.90;0.22;;;12.00;99.90;;;;;;5033551;28;20040;-61
2020/12/22 07:17:04;;;;;;;0.80;0.52;;;12.10;99.90;;;;;;5034461;28;20044;-61
2020/12/22 07:19:54;;;;;;;2.15;0.40;;;12.10;99.90;;;;;;5033440;28;20056;-61
2020/12/22 07:22:40;;;;;;;2.33;1.02;;;12.10;99.90;;;;;;5019350;28;20394;-60
2020/12/22 07:25:28;;;;;;;1.73;0.70;;;12.10;99.90;;;;;;5034040;28;20073;-60
2020/12/22 07:28:15;;;;;;;1.90;0.50;;;12.10;99.90;;;;;;5034915;28;20029;-61
2020/12/22 07:31:01;;;;;;;0.70;0.40;;;12.20;99.90;;;;;;5034575;28;20033;-61
2020/12/22 07:33:47;;;;;;;1.17;0.68;;;12.20;99.90;;;;;;5033798;28;20601;-61
2020/12/22 07:36:33;;;;;;;1.98;1.10;;;12.20;99.90;;;;;;5034677;28;20128;-61
2020/12/22 07:39:26;;;;;;;1.27;0.60;;;12.20;99.90;;;;;;5035413;28;20099;-60
2020/12/22 07:42:14;;;;;;;1.90;0.40;;;12.20;99.90;;;;;;5038131;28;20076;-66
2020/12/22 07:45:07;;;;;;;0.68;0.40;;;12.30;99.90;;;;;;5053958;28;20041;-60
2020/12/22 07:47:53;;;;;;;1.27;0.75;;;12.30;99.90;;;;;;5054471;28;20044;-60
2020/12/22 07:50:39;;;;;;;1.20;0.60;;;12.40;99.90;;;;;;5054764;28;20056;-60
2020/12/22 07:53:25;;;;;;;1.08;0.43;;;12.40;99.90;;;;;;5053601;28;20037;-55
2020/12/22 07:56:11;;;;;;;0.80;0.40;;;12.40;99.90;;;;;;5054029;28;20056;-60
2020/12/22 07:59:06;;;;;;;1.65;0.60;;;12.40;99.90;;;;;;5038734;28;20037;-61
2020/12/22 08:01:54;;;;;;;0.32;0.28;;;12.40;99.90;;;;;;5040306;28;20501;-61
2020/12/22 08:04:40;;;;;;;1.17;0.52;;;12.40;99.90;;;;;;5054803;28;20033;-60
2020/12/22 08:07:26;;;;;;;1.67;0.50;;;12.40;99.90;;;;;;5053710;28;20119;-60
2020/12/22 08:10:12;;;;;;;2.67;0.40;;;12.40;99.90;;;;;;5051734;28;20041;-60
2020/12/22 08:12:59;;;;;;;0.63;0.45;;;12.40;99.90;;;;;;5053009;28;20053;-60
2020/12/22 08:15:45;;;;;;;0.57;0.30;;;12.50;99.90;;;;;;5038059;28;20112;-61
2020/12/22 08:18:34;;;;;;;0.70;0.20;;;12.40;99.90;;;;;;5053943;28;20044;-60
2020/12/22 08:21:22;;;;;;;0.55;0.30;;;12.50;99.90;;;;;;5038712;28;20095;-60
2020/12/22 08:24:09;;;;;;;3.65;0.40;;;12.50;99.90;;;;;;5040191;28;20485;-60
2020/12/22 08:26:55;;;;;;;0.57;0.30;;;12.50;99.90;;;;;;5039478;28;20029;-61
2020/12/22 08:29:43;;;;;;;4.18;0.50;;;12.50;99.90;;;;;;5051805;28;20044;-61
2020/12/22 08:32:29;;;;;;;0.38;0.38;;;12.50;99.90;;;;;;5054297;28;20119;-61
2020/12/22 08:35:20;;;;;;;1.55;0.65;;;12.50;99.90;;;;;;5052286;28;20025;-60
2020/12/22 08:38:27;;;;;;;5.45;0.55;;;12.50;99.90;;;;;;5052157;28;20067;-59
2020/12/22 08:41:21;;;;;;;1.27;0.50;;;12.60;99.90;;;;;;5052778;28;20068;-61
2020/12/22 08:44:10;;;;;;;3.85;0.40;;;12.60;99.90;;;;;;5038129;28;20037;-60
2020/12/22 08:47:10;;;;;;;1.10;0.82;;;12.60;99.90;;;;;;5053967;28;20068;-60
2020/12/22 08:50:08;;;;;;;2.08;0.40;;;12.60;99.90;;;;;;5052007;28;20061;-60
2020/12/22 08:52:54;;;;;;;0.65;0.40;;;12.60;99.90;;;;;;5053859;28;20044;-59
2020/12/22 08:55:40;;;;;;;0.70;0.45;;;12.70;99.90;;;;;;5053370;28;20040;-56
2020/12/22 08:58:26;;;;;;;0.35;0.30;;;12.60;99.90;;;;;;5052065;28;20029;-58
2020/12/22 09:01:21;;;;;;;1.52;0.40;;;12.70;99.90;;;;;;5051658;28;20049;-58
2020/12/22 09:04:08;;;;;;;4.00;1.08;;;12.70;99.90;;;;;;5053578;28;20033;-59
2020/12/22 09:06:54;;;;;;;1.00;0.30;;;12.70;99.90;;;;;;5053578;28;20157;-57
2020/12/22 09:09:40;;;;;;;3.60;0.38;;;12.70;99.90;;;;;;5036656;28;20025;-59
2020/12/22 09:12:27;;;;;;;0.82;0.43;;;12.70;99.90;;;;;;5052437;28;20509;-59
2020/12/22 09:15:13;;;;;;;0.60;0.35;;;12.70;99.90;;;;;;5053679;28;20490;-59
2020/12/22 09:18:14;;;;;;;0.70;0.40;;;12.70;99.90;;;;;;5052382;28;20037;-58
2020/12/22 09:21:03;;;;;;;0.63;0.40;;;12.70;99.90;;;;;;5040767;28;20029;-58
2020/12/22 09:23:49;;;;;;;1.40;0.60;;;12.80;99.90;;;;;;5053252;28;20132;-60
2020/12/22 09:26:35;;;;;;;3.95;0.47;;;12.70;99.90;;;;;;5050860;28;20041;-59
2020/12/22 09:29:21;;;;;;;1.08;0.50;;;12.80;99.90;;;;;;5050300;28;20033;-61
2020/12/22 09:32:11;;;;;;;0.32;0.30;;;12.80;99.90;;;;;;5051445;28;20108;-67
2020/12/22 09:34:57;;;;;;;0.70;0.60;;;12.80;99.90;;;;;;5038188;28;20060;-66
2020/12/22 09:37:45;;;;;;;1.55;0.40;;;12.80;99.90;;;;;;5051335;28;20037;-71
2020/12/22 09:40:31;;;;;;;1.92;0.60;;;12.80;99.90;;;;;;5022987;28;20041;-56
2020/12/22 09:43:17;;;;;;;1.63;0.93;;;12.90;99.90;;;;;;5052780;28;20037;-56
2020/12/22 09:46:03;;;;;;;0.25;0.25;;;12.90;99.90;;;;;;5051261;28;20045;-57
2020/12/22 09:48:49;;;;;;;1.30;0.45;;;12.90;99.90;;;;;;5051956;28;20064;-57
2020/12/22 09:51:35;;;;;;;0.98;0.60;;;12.90;99.90;;;;;;5050538;28;20512;-58
2020/12/22 09:54:22;;;;;;;1.38;0.47;;;12.90;99.90;;;;;;5050643;28;20037;-59
2020/12/22 09:57:08;;;;;;;0.95;0.63;;;12.90;99.90;;;;;;5050641;28;20393;-57
2020/12/22 09:59:54;;;;;;;0.50;0.30;;;12.90;99.90;;;;;;5051672;28;20134;-58
2020/12/22 10:02:40;;;;;;;2.08;0.50;;;12.90;99.90;;;;;;5051486;28;20029;-58
2020/12/22 10:05:26;;;;;;;1.02;0.50;;;13.00;99.90;;;;;;5051905;28;20072;-58
2020/12/22 10:08:12;;;;;;;2.85;0.80;;;13.00;99.90;;;;;;5051280;28;20045;-57
2020/12/22 10:11:02;;;;;;;0.80;0.50;;;13.00;99.90;;;;;;5052242;28;20044;-57
2020/12/22 10:13:50;;;;;;;1.23;0.68;;;13.00;99.90;;;;;;5050464;28;20043;-58
2020/12/22 10:16:36;;;;;;;0.15;0.15;;;12.90;99.90;;;;;;5050940;28;20099;-57
2020/12/22 10:19:22;;;;;;;1.10;0.38;;;12.80;99.90;;;;;;5052520;28;20041;-59
2020/12/22 10:22:08;;;;;;;1.67;0.60;;;12.90;99.90;;;;;;5050400;28;20052;-59
2020/12/22 10:24:54;;;;;;;0.77;0.55;;;13.00;99.90;;;;;;5050484;28;20030;-58
2020/12/22 10:27:40;;;;;;;0.95;0.60;;;13.00;99.90;;;;;;5031727;28;20042;-59
2020/12/22 10:30:27;;;;;;;0.75;0.47;;;12.90;99.90;;;;;;5031155;28;20069;-58
2020/12/22 10:33:13;;;;;;;1.42;0.52;;;13.00;99.90;;;;;;5032191;28;20095;-59
2020/12/22 10:35:59;;;;;;;2.47;0.52;;;13.00;99.90;;;;;;5030950;28;20044;-59
2020/12/22 10:38:45;;;;;;;2.20;0.98;;;12.90;99.90;;;;;;5030391;28;20556;-60
2020/12/22 10:41:34;;;;;;;1.33;0.60;;;13.00;99.90;;;;;;5029909;28;20486;-59
2020/12/22 10:44:20;;;;;;;1.80;0.68;;;13.00;99.90;;;;;;5030956;28;20087;-58
2020/12/22 10:47:06;;;;;;;1.10;0.60;;;13.00;99.90;;;;;;5030685;28;20140;-60
2020/12/22 10:49:52;;;;;;;2.67;0.80;;;13.00;99.90;;;;;;5031951;28;20060;-56
2020/12/22 10:52:38;;;;;;;1.15;0.55;;;13.00;99.90;;;;;;5031045;28;20113;-58
2020/12/22 10:55:24;;;;;;;1.85;0.68;;;13.00;99.90;;;;;;5030997;28;20041;-59
2020/12/22 10:58:10;;;;;;;1.55;0.70;;;13.10;99.90;;;;;;5031384;28;20040;-59
2020/12/22 11:00:56;;;;;;;1.73;0.60;;;13.20;99.90;;;;;;5031004;28;20048;-59
2020/12/22 11:03:43;;;;;;;2.08;0.80;;;13.20;99.90;;;;;;5030988;28;20455;-57
2020/12/22 11:09:15;;;;;;;0.63;0.40;;;13.20;99.90;;;;;;5030624;28;20029;-59
2020/12/22 11:12:01;;;;;;;1.13;0.60;;;13.20;99.90;;;;;;5029645;28;20033;-60
2020/12/22 11:14:47;;;;;;;0.88;0.60;;;13.30;99.90;;;;;;5031424;28;20620;-59
2020/12/22 11:17:34;;;;;;;2.30;0.55;;;13.30;99.90;;;;;;5029221;28;20033;-60
2020/12/22 11:20:20;;;;;;;1.13;0.60;;;13.50;99.90;;;;;;5030046;28;20394;-60
2020/12/22 11:23:06;;;;;;;1.45;0.50;;;13.60;99.90;;;;;;5030005;28;20099;-59
2020/12/22 11:25:52;;;;;;;1.85;0.57;;;13.60;99.90;;;;;;5042361;28;20033;-58
2020/12/22 11:28:38;;;;;;;1.05;0.63;;;13.50;99.90;;;;;;5054539;28;20425;-59
2020/12/22 11:31:24;;;;;;;0.98;0.40;;;13.50;99.90;;;;;;5053887;28;20067;-59
2020/12/22 11:34:10;;;;;;;1.42;0.52;;;13.60;99.90;;;;;;5052670;28;20091;-59
2020/12/22 11:36:56;;;;;;;0.73;0.40;;;13.60;99.90;;;;;;5040587;28;20048;-58
2020/12/22 11:39:43;;;;;;;1.88;0.60;;;13.60;99.90;;;;;;5053433;28;20123;-59
2020/12/22 11:42:29;;;;;;;1.30;0.50;;;13.70;99.90;;;;;;5052952;28;20065;-60
2020/12/22 11:45:15;;;;;;;1.27;0.55;;;13.70;99.90;;;;;;5053091;28;20052;-59
2020/12/22 11:48:01;;;;;;;1.75;0.52;;;13.70;99.90;;;;;;5054544;28;20029;-59
2020/12/22 11:50:47;;;;;;;0.52;0.32;;;13.80;99.90;;;;;;5053126;28;20134;-59
2020/12/22 11:53:34;;;;;;;1.05;0.50;;;13.90;99.90;;;;;;5054377;28;20138;-60
2020/12/22 11:56:20;;;;;;;1.10;0.50;;;13.80;99.90;;;;;;5052949;28;20431;-60
2020/12/22 11:59:06;;;;;;;2.53;0.43;;;13.90;99.90;;;;;;5054465;28;20037;-59
2020/12/22 12:01:52;;;;;;;1.83;0.50;;;14.00;99.90;;;;;;5054266;28;20128;-58
2020/12/22 12:04:38;;;;;;;7.68;3.42;;;14.00;99.90;;;;;;5054120;28;20105;-58
2020/12/22 12:07:24;;;;;;;0.90;0.40;;;14.20;99.90;;;;;;5053865;28;20044;-58
2020/12/22 12:10:10;;;;;;;2.03;0.93;;;14.30;99.90;;;;;;5054529;28;20496;-59
2020/12/22 12:12:56;;;;;;;0.70;0.40;;;14.30;99.90;;;;;;5052743;28;20123;-59
2020/12/22 12:15:42;;;;;;;0.65;0.40;;;14.30;99.90;;;;;;5053306;28;20071;-59
2020/12/22 12:18:28;;;;;;;1.33;0.63;;;14.30;99.90;;;;;;5053837;28;20132;-58
2020/12/22 12:21:17;;;;;;;0.40;0.20;;;14.20;99.90;;;;;;5053255;28;20060;-68
2020/12/22 12:24:04;;;;;;;0.40;0.28;;;14.30;99.90;;;;;;5053786;28;20025;-59
2020/12/22 12:26:51;;;;;;;0.35;0.10;;;14.30;99.90;;;;;;5053633;28;20029;-59
2020/12/22 12:29:38;;;;;;;4.28;1.25;;;14.20;99.90;;;;;;5052818;28;20520;-63
2020/12/22 12:32:29;;;;;;;1.65;0.68;;;14.30;99.90;;;;;;5037992;28;20048;-58
2020/12/22 12:35:15;;;;;;;1.48;0.32;;;14.20;99.90;;;;;;5051560;28;20029;-59
2020/12/22 12:38:01;;;;;;;0.30;0.22;;;14.30;99.90;;;;;;5051942;28;20444;-61
2020/12/22 12:40:47;;;;;;;0.70;0.40;;;14.30;99.90;;;;;;5053835;28;20037;-59
2020/12/22 12:43:33;;;;;;;0.45;0.22;;;14.20;99.90;;;;;;5039209;28;20048;-59
2020/12/22 12:46:20;;;;;;;0.17;0.17;;;14.20;99.90;;;;;;5053340;28;20025;-60
2020/12/22 12:49:06;;;;;;;1.40;0.40;;;14.30;99.90;;;;;;5051746;28;20126;-58
2020/12/22 12:51:52;;;;;;;1.13;0.40;;;14.30;99.90;;;;;;5054222;28;20076;-59
2020/12/22 12:54:38;;;;;;;1.25;0.30;;;14.30;99.90;;;;;;5053355;28;20132;-59
2020/12/22 12:57:24;;;;;;;0.57;0.30;;;14.30;99.90;;;;;;5052014;28;20045;-57
2020/12/22 13:00:11;;;;;;;1.42;0.65;;;14.30;99.90;;;;;;5051151;28;20072;-57
2020/12/22 13:02:57;;;;;;;2.35;0.70;;;14.30;99.90;;;;;;5051758;28;20047;-58
2020/12/22 13:05:43;;;;;;;1.45;0.20;;;14.40;99.90;;;;;;5052322;28;20040;-59
2020/12/22 13:08:29;;;;;;;0.95;0.20;;;14.30;99.90;;;;;;5050684;28;20409;-64
2020/12/22 13:11:15;;;;;;;0.22;0.10;;;14.30;99.90;;;;;;5051557;28;20413;-60
2020/12/22 13:14:01;;;;;;;0.45;0.22;;;14.30;99.90;;;;;;5052842;28;20123;-59
2020/12/22 13:16:47;;;;;;;1.42;0.30;;;14.40;99.90;;;;;;5052864;28;20168;-61
2020/12/22 13:19:34;;;;;;;0.95;0.43;;;14.40;99.90;;;;;;5050982;28;20463;-59
2020/12/22 13:22:20;;;;;;;0.45;0.20;;;14.30;99.90;;;;;;5051890;28;20041;-58
2020/12/22 13:25:06;;;;;;;0.45;0.20;;;14.40;99.90;;;;;;5052294;28;20044;-58
2020/12/22 13:27:52;;;;;;;0.77;0.32;;;14.40;99.90;;;;;;5052607;28;20072;-57
2020/12/22 13:30:38;;;;;;;0.45;0.30;;;14.40;99.90;;;;;;5052618;28;20056;-58
2020/12/22 13:33:24;;;;;;;0.25;0.15;;;14.30;99.90;;;;;;5052383;28;20037;-56
2020/12/22 13:36:10;;;;;;;0.95;0.47;;;14.30;99.90;;;;;;5051782;28;20036;-56
2020/12/22 13:38:56;;;;;;;0.17;0.10;;;14.40;99.90;;;;;;5052023;28;20045;-57
2020/12/22 13:41:42;;;;;;;0.38;0.28;;;14.30;99.90;;;;;;5037486;28;20505;-57
2020/12/22 13:44:29;;;;;;;0.80;0.40;;;14.40;99.90;;;;;;5051503;28;20091;-57
2020/12/22 13:47:15;;;;;;;0.95;0.30;;;14.40;99.90;;;;;;5049050;28;20482;-59
2020/12/22 13:50:01;;;;;;;0.55;0.30;;;14.40;99.90;;;;;;5030526;28;20065;-59
2020/12/22 13:52:47;;;;;;;0.32;0.30;;;14.30;99.90;;;;;;5030913;28;20068;-59
2020/12/22 13:55:33;;;;;;;0.73;0.35;;;14.40;99.90;;;;;;5034901;28;20036;-57
2020/12/22 13:58:19;;;;;;;0.52;0.30;;;14.30;99.90;;;;;;5051197;28;20033;-58
2020/12/22 14:01:05;;;;;;;1.50;0.38;;;14.30;99.90;;;;;;5036787;28;20493;-60
2020/12/22 14:03:52;;;;;;;1.63;0.47;;;14.30;99.90;;;;;;5051338;28;20570;-60
2020/12/22 14:06:40;;;;;;;2.15;0.40;;;14.30;99.90;;;;;;5051633;28;20036;-59
2020/12/22 14:09:26;;;;;;;2.83;0.90;;;14.30;99.90;;;;;;5050127;28;20036;-59
2020/12/22 14:12:12;;;;;;;0.25;0.20;;;14.40;99.90;;;;;;5050741;28;20052;-60
2020/12/22 14:14:58;;;;;;;0.38;0.28;;;14.30;99.90;;;;;;5036645;28;20040;-59
2020/12/22 14:17:44;;;;;;;1.33;0.35;;;14.30;99.90;;;;;;5050138;28;20064;-59
2020/12/22 14:20:31;;;;;;;0.52;0.32;;;14.30;99.90;;;;;;5051725;28;20401;-59
2020/12/22 14:23:18;;;;;;;0.63;0.30;;;14.30;99.90;;;;;;5051856;28;20111;-56
2020/12/22 14:26:05;;;;;;;0.75;0.30;;;14.20;99.90;;;;;;5051233;28;20033;-59
2020/12/22 14:28:52;;;;;;;0.90;0.40;;;14.30;99.90;;;;;;5035056;28;20064;-59
2020/12/22 14:31:39;;;;;;;2.88;0.40;;;14.20;99.90;;;;;;5050032;28;20131;-63
2020/12/22 14:34:25;;;;;;;1.08;0.55;;;14.20;99.90;;;;;;5050725;28;20111;-58